createdAt,value
2024-03-02T00:01:57.060Z,99.90
2024-03-02T00:07:03.403Z,99.90
2024-03-02T00:12:07.740Z,99.90
2024-03-02T00:17:27.210Z,99.90
2024-03-02T00:22:36.119Z,99.90
2024-03-02T00:27:39.917Z,99.90
2024-03-02T00:32:44.940Z,99.90
2024-03-02T00:37:50.962Z,99.90
2024-03-02T00:42:54.651Z,99.90
2024-03-02T00:47:57.921Z,99.90
2024-03-02T00:53:04.266Z,99.90
2024-03-02T00:58:06.986Z,99.90
2024-03-02T01:03:10.022Z,99.90
2024-03-02T01:08:16.099Z,99.90
2024-03-02T01:13:19.036Z,99.90
2024-03-02T01:18:21.807Z,99.90
2024-03-02T01:23:29.885Z,99.90
2024-03-02T01:28:32.522Z,99.90
2024-03-02T01:33:35.425Z,99.90
2024-03-02T01:38:40.777Z,99.90
2024-03-02T01:43:46.102Z,99.90
2024-03-02T01:48:49.633Z,99.90
2024-03-02T01:53:55.590Z,99.90
2024-03-02T01:58:59.968Z,99.90
2024-03-02T02:04:03.344Z,99.90
2024-03-02T02:09:09.624Z,99.90
2024-03-02T02:14:13.153Z,99.90
2024-03-02T02:19:16.528Z,99.90
2024-03-02T02:24:23.695Z,99.90
2024-03-02T02:29:28.223Z,99.90
2024-03-02T02:34:32.384Z,99.90
2024-03-02T02:39:38.456Z,99.90
2024-03-02T02:44:41.902Z,99.90
2024-03-02T02:49:45.317Z,99.90
2024-03-02T02:54:51.395Z,99.90
2024-03-02T02:59:54.705Z,99.90
2024-03-02T03:04:58.691Z,99.90
2024-03-02T03:10:06.784Z,99.90
2024-03-02T03:15:12.877Z,99.90
2024-03-02T03:20:16.948Z,99.90
2024-03-02T03:25:22.947Z,99.90
2024-03-02T03:30:28.029Z,99.90
2024-03-02T03:35:31.596Z,99.90
2024-03-02T03:40:38.403Z,99.90
2024-03-02T03:45:43.036Z,99.90
2024-03-02T03:50:47.736Z,99.90
2024-03-02T03:55:53.660Z,99.90
2024-03-02T04:00:58.461Z,99.90
2024-03-02T04:06:01.896Z,99.90
2024-03-02T04:11:09.243Z,99.90
2024-03-02T04:16:13.532Z,99.90
2024-03-02T04:21:17.267Z,99.90
2024-03-02T04:26:23.758Z,99.90
2024-03-02T04:31:28.631Z,99.90
2024-03-02T04:36:32.101Z,99.90
2024-03-02T04:41:38.031Z,99.90
2024-03-02T04:46:41.767Z,99.90
2024-03-02T04:51:45.301Z,99.90
2024-03-02T04:56:51.967Z,99.90
2024-03-02T05:02:15.434Z,99.90
2024-03-02T05:07:17.996Z,99.90
2024-03-02T05:12:41.989Z,99.90
2024-03-02T05:17:44.692Z,99.90
2024-03-02T05:22:48.443Z,99.90
2024-03-02T05:27:53.594Z,99.90
2024-03-02T05:32:56.116Z,99.90
2024-03-02T05:37:58.660Z,99.90
2024-03-02T05:43:04.151Z,99.90
2024-03-02T05:48:08.907Z,99.90
2024-03-02T05:53:11.447Z,99.90
2024-03-02T05:58:32.861Z,99.90
2024-03-02T06:03:36.234Z,99.90
2024-03-02T06:08:39.231Z,99.90
2024-03-02T06:13:44.443Z,99.90
2024-03-02T06:18:46.955Z,99.90
2024-03-02T06:23:49.513Z,99.90
2024-03-02T06:28:54.678Z,99.90
2024-03-02T06:33:57.275Z,99.90
2024-03-02T06:38:59.822Z,99.90
2024-03-02T06:44:05.306Z,99.90
2024-03-02T06:49:07.810Z,99.90
2024-03-02T06:54:10.395Z,99.90
2024-03-02T06:59:15.746Z,99.90
2024-03-02T07:04:20.009Z,99.90
2024-03-02T07:09:24.309Z,99.90
2024-03-02T07:14:49.589Z,99.90
2024-03-02T07:19:52.197Z,99.90
2024-03-02T07:24:54.772Z,99.90
2024-03-02T07:29:59.875Z,99.90
2024-03-02T07:35:02.850Z,99.90
2024-03-02T07:40:06.294Z,99.90
2024-03-02T07:45:11.652Z,99.90
2024-03-02T07:50:14.417Z,99.90
2024-03-02T07:55:17.970Z,99.90
2024-03-02T08:00:24.347Z,99.90
2024-03-02T08:05:28.846Z,99.90
2024-03-02T08:10:31.424Z,99.90
2024-03-02T08:15:36.700Z,99.90
2024-03-02T08:20:40.103Z,99.90
2024-03-02T08:25:43.174Z,99.90
2024-03-02T08:30:50.567Z,99.90
2024-03-02T08:35:53.387Z,99.90
2024-03-02T08:40:55.969Z,99.90
2024-03-02T08:46:01.192Z,99.90
2024-03-02T08:51:05.988Z,99.90
2024-03-02T08:56:08.860Z,99.90
2024-03-02T09:01:34.553Z,99.90
2024-03-02T09:06:39.787Z,99.90
2024-03-02T09:11:42.590Z,99.90
2024-03-02T09:17:08.407Z,99.90
2024-03-02T09:22:11.235Z,99.90
2024-03-02T09:27:14.048Z,99.90
2024-03-02T09:32:39.806Z,99.90
2024-03-02T09:37:42.449Z,99.90
2024-03-02T09:42:46.743Z,99.90
2024-03-02T09:47:58.169Z,99.90
2024-03-02T09:53:01.990Z,99.90
2024-03-02T09:58:05.280Z,99.90
2024-03-02T10:03:34.387Z,99.90
2024-03-02T10:08:45.515Z,99.90
2024-03-02T10:13:48.407Z,99.90
2024-03-02T10:19:24.672Z,99.90
2024-03-02T10:24:47.656Z,99.90
2024-03-02T10:29:53.584Z,99.90
2024-03-02T10:35:19.362Z,99.90
2024-03-02T10:46:36.688Z,99.90
2024-03-02T10:51:41.966Z,99.90
2024-03-02T10:57:08.561Z,99.40
2024-03-02T11:02:32.244Z,98.80
2024-03-02T11:07:39.906Z,98.70
2024-03-02T11:12:53.573Z,97.60
2024-03-02T11:18:17.985Z,97.40
2024-03-02T11:23:33.967Z,96.30
2024-03-02T11:28:58.553Z,95.50
2024-03-02T11:34:19.798Z,95.70
2024-03-02T11:39:45.765Z,94.80
2024-03-02T11:45:10.508Z,94.50
2024-03-02T11:50:30.620Z,94.10
2024-03-02T11:55:57.014Z,93.30
2024-03-02T12:01:02.166Z,91.60
2024-03-02T12:06:06.160Z,90.00
2024-03-02T12:11:16.782Z,90.10
2024-03-02T12:16:25.352Z,87.50
2024-03-02T12:21:27.987Z,85.40
2024-03-02T12:26:54.360Z,84.20
2024-03-02T12:31:57.069Z,84.10
2024-03-02T12:37:01.122Z,83.80
2024-03-02T12:42:26.804Z,83.00
2024-03-02T12:47:29.377Z,82.50
2024-03-02T12:52:33.663Z,82.70
2024-03-02T12:58:00.671Z,83.60
2024-03-02T13:03:04.933Z,82.60
2024-03-02T13:08:08.461Z,82.10
2024-03-02T13:13:26.149Z,81.90
2024-03-02T13:18:34.399Z,80.30
2024-03-02T13:23:38.111Z,79.60
2024-03-02T13:28:43.369Z,79.00
2024-03-02T13:34:06.212Z,79.60
2024-03-02T13:39:11.429Z,79.80
2024-03-02T13:44:37.096Z,79.20
2024-03-02T13:50:00.057Z,79.40
2024-03-02T13:55:03.575Z,79.40
2024-03-02T14:00:13.637Z,79.20
2024-03-02T14:05:16.571Z,79.20
2024-03-02T14:10:39.463Z,80.00
2024-03-02T14:15:45.187Z,79.40
2024-03-02T14:21:07.838Z,78.60
2024-03-02T14:26:11.498Z,78.10
2024-03-02T14:31:36.811Z,77.40
2024-03-02T14:36:40.045Z,77.30
2024-03-02T14:42:05.132Z,77.70
2024-03-02T14:47:33.005Z,77.20
2024-03-02T14:52:35.788Z,76.60
2024-03-02T14:57:41.945Z,76.40
2024-03-02T15:03:10.215Z,75.90
2024-03-02T15:08:12.935Z,75.90
2024-03-02T15:13:16.639Z,76.40
2024-03-02T15:18:41.994Z,76.60
2024-03-02T15:23:45.021Z,76.50
2024-03-02T15:29:00.347Z,76.70
2024-03-02T15:34:07.895Z,76.90
2024-03-02T15:39:15.128Z,77.30
2024-03-02T15:44:18.330Z,78.00
2024-03-02T15:49:43.670Z,78.40
2024-03-02T15:54:46.303Z,78.80
2024-03-02T16:00:21.477Z,79.50
2024-03-02T16:05:46.649Z,80.00
2024-03-02T16:10:49.279Z,80.70
2024-03-02T16:15:51.953Z,81.50
2024-03-02T16:21:17.520Z,82.20
2024-03-02T16:26:20.126Z,83.30
2024-03-02T16:31:23.427Z,84.40
2024-03-02T16:36:39.413Z,85.40
2024-03-02T16:42:04.027Z,86.90
2024-03-02T16:47:06.765Z,88.60
2024-03-02T16:52:32.478Z,89.90
2024-03-02T16:57:55.197Z,90.70
2024-03-02T17:02:57.965Z,91.50
2024-03-02T17:08:23.165Z,92.10
2024-03-02T17:13:25.752Z,93.00
2024-03-02T17:18:28.351Z,93.60
2024-03-02T17:23:59.632Z,94.00
2024-03-02T17:29:02.253Z,95.40
2024-03-02T17:34:05.685Z,97.30
2024-03-02T17:39:30.843Z,98.40
2024-03-02T17:44:33.411Z,99.30
2024-03-02T17:49:36.148Z,99.90
2024-03-02T17:55:01.546Z,99.90
2024-03-02T18:00:05.181Z,99.90
2024-03-02T18:05:14.624Z,99.90
2024-03-02T18:10:19.957Z,99.90
2024-03-02T18:15:42.605Z,99.90
2024-03-02T18:20:46.302Z,99.90
2024-03-02T18:25:51.988Z,99.90
2024-03-02T18:30:54.927Z,99.90
2024-03-02T18:36:19.319Z,99.90
2024-03-02T18:41:24.442Z,99.90
2024-03-02T18:46:26.970Z,99.90
2024-03-02T18:51:29.779Z,99.90
2024-03-02T18:56:56.314Z,99.90
2024-03-02T19:02:18.956Z,99.90
2024-03-02T19:07:41.513Z,99.90
2024-03-02T19:12:49.071Z,99.90
2024-03-02T19:18:11.606Z,99.90
2024-03-02T19:23:21.435Z,99.90
2024-03-02T19:28:50.737Z,99.90
2024-03-02T19:33:53.372Z,99.90
2024-03-02T19:38:56.723Z,99.90
2024-03-02T19:44:04.847Z,99.90
2024-03-02T19:49:27.522Z,99.90
2024-03-02T19:54:33.428Z,99.90
2024-03-02T19:59:40.266Z,99.90
2024-03-02T20:05:02.794Z,99.90
2024-03-02T20:10:07.813Z,99.90
2024-03-02T20:15:19.802Z,99.90
2024-03-02T20:20:25.288Z,99.90
2024-03-02T20:25:27.777Z,99.90
2024-03-02T20:30:33.198Z,99.90
2024-03-02T20:35:35.784Z,99.90
2024-03-02T20:40:48.136Z,99.90
2024-03-02T20:46:15.010Z,99.90
2024-03-02T20:51:17.732Z,99.90
2024-03-02T20:56:20.480Z,99.90
2024-03-02T21:01:48.389Z,99.90
2024-03-02T21:06:51.266Z,99.90
2024-03-02T21:11:53.955Z,99.90
2024-03-02T21:16:59.320Z,99.90
2024-03-02T21:22:23.120Z,99.90
2024-03-02T21:27:25.737Z,99.90
2024-03-02T21:32:33.683Z,99.90
2024-03-02T21:37:36.238Z,99.90
2024-03-02T21:42:58.807Z,99.90
2024-03-02T21:48:10.194Z,99.90
2024-03-02T21:53:16.733Z,99.90
2024-03-02T21:58:19.322Z,99.90
2024-03-02T22:03:46.873Z,99.90
2024-03-02T22:08:55.075Z,99.90
2024-03-02T22:13:57.737Z,99.90
2024-03-02T22:19:02.857Z,99.90
2024-03-02T22:24:26.337Z,99.90
2024-03-02T22:29:29.238Z,99.90
2024-03-02T22:34:34.664Z,99.90
2024-03-02T22:39:37.217Z,99.90
2024-03-02T22:44:59.874Z,99.90
2024-03-02T22:50:07.125Z,99.90
2024-03-02T22:55:11.856Z,99.90
2024-03-02T23:00:34.594Z,99.90
2024-03-02T23:05:39.999Z,99.90
2024-03-02T23:10:43.273Z,99.90
2024-03-02T23:15:45.871Z,99.90
2024-03-02T23:21:11.108Z,99.90
2024-03-02T23:26:13.784Z,99.90
2024-03-02T23:31:17.018Z,99.90
2024-03-02T23:36:22.401Z,99.90
2024-03-02T23:41:44.814Z,99.90
2024-03-02T23:46:47.440Z,99.90
2024-03-02T23:51:53.282Z,99.90
2024-03-02T23:56:55.814Z,99.90
